Terminal Aerodrome Forecast
Issued by NWS Wakefield, VA

Home | Current Version | Previous Version | Text Only | Print | Product List | Glossary On
Versions: 1 2 3 4 5 6 7 8 9 10 11 12 13 14 15 16 17
000
FTUS41 KAKQ 261729
TAFRIC
TAF
KRIC 261729Z 2618/2718 19015G25KT P6SM SCT040 BKN080
      TEMPO 2618/2619 4SM -SHRA BKN030 OVC060
     FM262300 20011KT P6SM SCT100 OVC200
     FM270400 24010KT P6SM -RA SCT025 OVC050
     FM270600 01012KT 4SM -RA OVC015
     FM271400 01013G19KT 4SM -RA BR OVC007=

USA.gov is the U.S. government's official web portal to all federal, state and local government web resources and services.